Map

Track Data

SID SEASON NUMBER BASIN SUBBASIN NAME ISO_TIME NATURE LAT LON WMO_WIND WMO_PRES WMO_AGENCY TRACK_TYPE DIST2LAND LANDFALL IFLAG USA_AGENCY USA_ATCF_ID USA_LAT USA_LON USA_RECORD USA_STATUS USA_WIND USA_PRES USA_SSHS USA_R34_NE USA_R34_SE USA_R34_SW USA_R34_NW USA_R50_NE USA_R50_SE USA_R50_SW USA_R50_NW USA_R64_NE USA_R64_SE USA_R64_SW USA_R64_NW USA_POCI USA_ROCI USA_RMW USA_EYE TOKYO_LAT TOKYO_LON TOKYO_GRADE TOKYO_WIND TOKYO_PRES TOKYO_R50_DIR TOKYO_R50_LONG TOKYO_R50_SHORT TOKYO_R30_DIR TOKYO_R30_LONG TOKYO_R30_SHORT TOKYO_LAND CMA_LAT CMA_LON CMA_CAT CMA_WIND CMA_PRES HKO_LAT HKO_LON HKO_CAT HKO_WIND HKO_PRES NEWDELHI_LAT NEWDELHI_LON NEWDELHI_GRADE NEWDELHI_WIND NEWDELHI_PRES NEWDELHI_CI NEWDELHI_DP NEWDELHI_POCI REUNION_LAT REUNION_LON REUNION_TYPE REUNION_WIND REUNION_PRES REUNION_TNUM REUNION_CI REUNION_RMW REUNION_R34_NE REUNION_R34_SE REUNION_R34_SW REUNION_R34_NW REUNION_R50_NE REUNION_R50_SE REUNION_R50_SW REUNION_R50_NW REUNION_R64_NE REUNION_R64_SE REUNION_R64_SW REUNION_R64_NW BOM_LAT BOM_LON BOM_TYPE BOM_WIND BOM_PRES BOM_TNUM BOM_CI BOM_RMW BOM_R34_NE BOM_R34_SE BOM_R34_SW BOM_R34_NW BOM_R50_NE BOM_R50_SE BOM_R50_SW BOM_R50_NW BOM_R64_NE BOM_R64_SE BOM_R64_SW BOM_R64_NW BOM_ROCI BOM_POCI BOM_EYE BOM_POS_METHOD BOM_PRES_METHOD NADI_LAT NADI_LON NADI_CAT NADI_WIND NADI_PRES WELLINGTON_LAT WELLINGTON_LON WELLINGTON_WIND WELLINGTON_PRES DS824_LAT DS824_LON DS824_STAGE DS824_WIND DS824_PRES TD9636_LAT TD9636_LON TD9636_STAGE TD9636_WIND TD9636_PRES TD9635_LAT TD9635_LON TD9635_WIND TD9635_PRES TD9635_ROCI NEUMANN_LAT NEUMANN_LON NEUMANN_CLASS NEUMANN_WIND NEUMANN_PRES MLC_LAT MLC_LON MLC_CLASS MLC_WIND MLC_PRES USA_GUST BOM_GUST BOM_GUST_PER REUNION_GUST REUNION_GUST_PER USA_SEAHGT USA_SEARAD_NE USA_SEARAD_SE USA_SEARAD_SW USA_SEARAD_NW STORM_SPEED STORM_DIR
1934347N07133 1934 86 WP MM NOT_NAMED 1934-12-13 10:00:00 NR 6.60000 132.500 main 623 616 __________O___ -1 6.60000 132.500 2 2 273
1934347N07133 1934 86 WP MM NOT_NAMED 1934-12-13 12:00:00 NR 6.60324 132.446 main 616 608 __________P___ -1 6.60324 132.446 2 2 279
1934347N07133 1934 86 WP MM NOT_NAMED 1934-12-13 15:00:00 NR 6.62566 132.329 main 608 603 __________P___ -1 6.62566 132.329 2 3 286
1934347N07133 1934 86 WP MM NOT_NAMED 1934-12-13 18:00:00 NR 6.69321 132.119 main 603 577 __________P___ -1 6.69321 132.119 2 6 290
1934347N07133 1934 86 WP MM NOT_NAMED 1934-12-13 21:00:00 NR 6.83282 131.762 main 577 554 __________P___ -1 6.83282 131.762 2 8 292
1934347N07133 1934 86 WP MM NOT_NAMED 1934-12-13 22:00:00 NR 6.90000 131.600 main 554 508 __________O___ -1 6.90000 131.600 2 12 293
1934347N07133 1934 86 WP MM NOT_NAMED 1934-12-14 00:00:00 NR 7.06880 131.206 main 508 430 __________P___ -1 7.06880 131.206 2 15 294
1934347N07133 1934 86 WP MM NOT_NAMED 1934-12-14 03:00:00 NR 7.39720 130.477 main 430 331 __________P___ -1 7.39720 130.477 2 17 295
1934347N07133 1934 86 WP MM NOT_NAMED 1934-12-14 06:00:00 NR 7.79609 129.645 main 331 248 __________P___ -1 7.79609 129.645 2 19 297
1934347N07133 1934 86 WP MM NOT_NAMED 1934-12-14 09:00:00 NR 8.24366 128.782 main 248 223 __________P___ -1 8.24366 128.782 2 19 298
1934347N07133 1934 86 WP MM NOT_NAMED 1934-12-14 10:00:00 NR 8.40000 128.500 main 223 171 __________O___ -1 8.40000 128.500 2 20 301
1934347N07133 1934 86 WP MM NOT_NAMED 1934-12-14 12:00:00 NR 8.74957 127.943 main 171 99 __________P___ -1 8.74957 127.943 2 20 303
1934347N07133 1934 86 WP MM NOT_NAMED 1934-12-14 15:00:00 NR 9.30658 127.112 main 99 47 __________P___ -1 9.30658 127.112 2 19 305
1934347N07133 1934 86 WP MM NOT_NAMED 1934-12-14 18:00:00 NR 9.84116 126.338 main 47 43 __________P___ -1 9.84116 126.338 2 17 305
1934347N07133 1934 86 WP MM NOT_NAMED 1934-12-14 21:00:00 NR 10.2844 125.682 main 43 24 __________P___ -1 10.2844 125.682 2 15 304
1934347N07133 1934 86 WP MM NOT_NAMED 1934-12-14 22:00:00 NR 10.4000 125.500 main 24 0 __________O___ -1 10.4000 125.500 2 10 300
1934347N07133 1934 86 WP MM NOT_NAMED 1934-12-15 00:00:00 NR 10.5461 125.226 main 0 0 __________P___ -1 10.5461 125.226 2 7 295
1934347N07133 1934 86 WP MM NOT_NAMED 1934-12-15 03:00:00 NR 10.6589 124.942 main 0 0 __________P___ -1 10.6589 124.942 2 5 287
1934347N07133 1934 86 WP MM NOT_NAMED 1934-12-15 06:00:00 NR 10.6912 124.747 main 10 10 __________P___ -1 10.6912 124.747 2 4 276
1934347N07133 1934 86 WP MM NOT_NAMED 1934-12-15 09:00:00 NR 10.6956 124.569 main 21 21 __________P___ -1 10.6956 124.569 2 4 272
1934347N07133 1934 86 WP MM NOT_NAMED 1934-12-15 10:00:00 NR 10.7000 124.500 main 22 22 __________O___ -1 10.7000 124.500 2 5 277
1934347N07133 1934 86 WP MM NOT_NAMED 1934-12-15 12:00:00 NR 10.7217 124.338 main 24 0 __________P___ -1 10.7217 124.338 2 6 280
1934347N07133 1934 86 WP MM NOT_NAMED 1934-12-15 15:00:00 NR 10.7823 124.041 main 0 0 __________P___ -1 10.7823 124.041 2 6 283
1934347N07133 1934 86 WP MM NOT_NAMED 1934-12-15 18:00:00 NR 10.8673 123.697 main 15 0 __________P___ -1 10.8673 123.697 2 7 285
1934347N07133 1934 86 WP MM NOT_NAMED 1934-12-15 21:00:00 NR 10.9659 123.326 main 11 11 __________P___ -1 10.9659 123.326 2 8 285
1934347N07133 1934 86 WP MM NOT_NAMED 1934-12-15 22:00:00 NR 11.0000 123.200 main 11 __________O___ -1 11.0000 123.200 2 8 285

Digital Typhoon Data and Search

About IBTrACS Database

This database is a web-friendly format of International Best Track Archive for Climate Stewardship (IBTrACS), a global best track data archive curated by NOAA dating back to 1842.

Updated: 2021-12-03